| time (UTC) | temp F | wind direction | speed knots | gust knots | rain 1hr in | rain 24hr in | rain mn in | humidity % | barometer mb |
| 20260508041503 | 50 | 316 | 0.0 | 0.0 | 0.00 | 0.52 | 0.00 | 96 | 1012.5 |
| 20260508041003 | 50 | 316 | 0.0 | 0.0 | 0.00 | 0.52 | 0.00 | 96 | 1012.5 |
| 20260508040603 | 50 | 316 | 0.0 | 0.0 | 0.00 | 0.52 | 0.00 | 96 | 1012.5 |
| 20260508040006 | 50 | 316 | 0.0 | 0.0 | 0.00 | 0.52 | 0.00 | 96 | 1012.5 |
| 20260508035509 | 50 | 316 | 0.0 | 0.0 | 0.00 | 0.62 | 0.52 | 96 | 1012.5 |
| 20260508035103 | 51 | 316 | 0.0 | 0.0 | 0.00 | 0.62 | 0.52 | 96 | 1012.4 |
| 20260508034502 | 51 | 316 | 0.0 | 0.0 | 0.00 | 0.62 | 0.52 | 96 | 1012.4 |
| 20260508034009 | 51 | 316 | 0.0 | 0.0 | 0.00 | 0.62 | 0.52 | 96 | 1012.3 |
| 20260508033603 | 51 | 316 | 0.0 | 0.0 | 0.00 | 0.62 | 0.52 | 96 | 1012.4 |
| 20260508033005 | 51 | 316 | 0.0 | 0.0 | 0.00 | 0.62 | 0.52 | 96 | 1012.3 |
| 20260508032512 | 51 | 316 | 0.0 | 0.0 | 0.00 | 0.62 | 0.52 | 95 | 1012.3 |
| 20260508032102 | 51 | 316 | 0.0 | 0.0 | 0.00 | 0.62 | 0.52 | 96 | 1012.2 |
| 20260508031609 | 51 | 315 | 0.0 | 0.9 | 0.00 | 0.62 | 0.52 | 96 | 1012.1 |
| 20260508031010 | 52 | 315 | 0.0 | 0.9 | 0.00 | 0.62 | 0.52 | 96 | 1012.0 |
| 20260508030603 | 52 | 315 | 0.0 | 0.0 | 0.00 | 0.62 | 0.52 | 96 | 1012.1 |
| 20260508030006 | 52 | 315 | 0.0 | 0.0 | 0.00 | 0.62 | 0.52 | 96 | 1011.9 |
| 20260508025514 | 52 | 315 | 0.0 | 0.0 | 0.00 | 0.73 | 0.52 | 96 | 1011.8 |
| 20260508025003 | 52 | 315 | 0.0 | 0.0 | 0.00 | 0.73 | 0.52 | 96 | 1012.1 |
| 20260508024511 | 52 | 315 | 0.0 | 0.0 | 0.00 | 0.73 | 0.52 | 95 | 1012.0 |
| 20260508024105 | 52 | 315 | 0.0 | 0.0 | 0.00 | 0.73 | 0.52 | 95 | 1012.0 |
| 20260508023503 | 52 | 315 | 0.0 | 0.0 | 0.00 | 0.73 | 0.52 | 95 | 1011.9 |
| 20260508023013 | 53 | 315 | 0.0 | 0.0 | 0.00 | 0.73 | 0.52 | 95 | 1011.9 |
| 20260508022602 | 53 | 315 | 0.0 | 0.9 | 0.00 | 0.73 | 0.52 | 95 | 1011.7 |
| 20260508022002 | 53 | 315 | 0.0 | 0.9 | 0.00 | 0.73 | 0.52 | 95 | 1011.7 |
| 20260508021509 | 53 | 316 | 0.0 | 0.0 | 0.00 | 0.73 | 0.52 | 95 | 1011.5 |
| 20260508021103 | 53 | 316 | 0.0 | 0.0 | 0.00 | 0.73 | 0.52 | 95 | 1011.4 |
| 20260508020502 | 53 | 316 | 0.0 | 0.0 | 0.00 | 0.73 | 0.52 | 95 | 1011.4 |
| 20260508020009 | 53 | 316 | 0.0 | 0.0 | 0.00 | 0.73 | 0.52 | 95 | 1011.4 |
| 20260508015603 | 54 | 316 | 0.0 | 0.0 | 0.00 | 0.74 | 0.52 | 95 | 1011.3 |
| 20260508015002 | 54 | 315 | 0.0 | 0.0 | 0.00 | 0.74 | 0.52 | 95 | 1011.2 |
| 20260508014509 | 54 | 315 | 0.0 | 0.0 | 0.00 | 0.74 | 0.52 | 95 | 1011.0 |
| 20260508014104 | 54 | 315 | 0.0 | 0.0 | 0.00 | 0.74 | 0.52 | 95 | 1010.9 |
| 20260508013502 | 54 | 315 | 0.0 | 0.0 | 0.00 | 0.74 | 0.52 | 95 | 1010.7 |
| 20260508013009 | 54 | 315 | 0.0 | 0.0 | 0.00 | 0.74 | 0.52 | 95 | 1010.6 |
| 20260508012603 | 54 | 315 | 0.0 | 0.0 | 0.00 | 0.74 | 0.52 | 95 | 1010.6 |
| 20260508012003 | 55 | 315 | 0.0 | 0.0 | 0.00 | 0.74 | 0.52 | 95 | 1010.5 |
| 20260508011511 | 55 | 315 | 0.0 | 0.0 | 0.00 | 0.74 | 0.52 | 95 | 1010.4 |
| 20260508011106 | 55 | 316 | 0.0 | 0.0 | 0.00 | 0.74 | 0.52 | 95 | 1010.3 |
| 20260508010503 | 55 | 316 | 0.0 | 0.0 | 0.00 | 0.74 | 0.52 | 95 | 1010.3 |
| 20260508010010 | 56 | 316 | 0.0 | 0.0 | 0.00 | 0.74 | 0.52 | 96 | 1010.1 |
| 20260508005508 | 56 | 316 | 0.0 | 0.0 | 0.00 | 0.75 | 0.52 | 96 | 1010.0 |
| 20260508005102 | 56 | 316 | 0.0 | 0.0 | 0.00 | 0.75 | 0.52 | 96 | 1010.0 |
| 20260508004502 | 56 | 316 | 0.0 | 0.0 | 0.00 | 0.75 | 0.52 | 96 | 1009.9 |
| 20260508004009 | 56 | 316 | 0.0 | 0.0 | 0.00 | 0.75 | 0.52 | 96 | 1009.8 |
| 20260508003602 | 56 | 316 | 0.0 | 0.0 | 0.00 | 0.75 | 0.52 | 96 | 1009.7 |
| 20260508003003 | 56 | 316 | 0.0 | 0.0 | 0.00 | 0.75 | 0.52 | 96 | 1009.9 |
| 20260508002510 | 56 | 316 | 0.0 | 0.0 | 0.00 | 0.75 | 0.52 | 96 | 1009.9 |
| 20260508002102 | 56 | 316 | 0.0 | 0.0 | 0.00 | 0.75 | 0.52 | 95 | 1009.9 |
| 20260508001503 | 56 | 316 | 0.0 | 0.0 | 0.00 | 0.75 | 0.52 | 96 | 1009.8 |
| 20260508001010 | 57 | 316 | 0.0 | 0.0 | 0.00 | 0.75 | 0.52 | 96 | 1009.8 |
| 20260508000605 | 57 | 316 | 0.0 | 0.0 | 0.00 | 0.75 | 0.52 | 96 | 1009.8 |
| 20260508000007 | 57 | 316 | 0.0 | 0.0 | 0.00 | 0.75 | 0.52 | 96 | 1009.7 |
| 20260507235509 | 57 | 316 | 0.0 | 0.0 | 0.00 | 0.75 | 0.52 | 96 | 1009.7 |
| 20260507235102 | 57 | 316 | 0.0 | 0.0 | 0.00 | 0.75 | 0.52 | 96 | 1009.8 |
| 20260507234509 | 57 | 316 | 0.0 | 0.0 | 0.00 | 0.75 | 0.52 | 96 | 1009.7 |
| 20260507234008 | 57 | 316 | 0.0 | 0.0 | 0.00 | 0.75 | 0.52 | 96 | 1009.7 |
| 20260507233604 | 57 | 316 | 0.0 | 0.0 | 0.00 | 0.75 | 0.52 | 96 | 1009.5 |
| 20260507233004 | 57 | 316 | 0.0 | 0.9 | 0.00 | 0.75 | 0.52 | 96 | 1009.4 |
| 20260507232509 | 57 | 316 | 0.0 | 0.9 | 0.00 | 0.75 | 0.52 | 96 | 1009.3 |
| 20260507232102 | 57 | 315 | 0.0 | 0.9 | 0.01 | 0.75 | 0.52 | 96 | 1009.2 |
| 20260507231503 | 57 | 315 | 0.0 | 0.9 | 0.01 | 0.75 | 0.52 | 96 | 1009.1 |
| 20260507231008 | 57 | 317 | 0.0 | 0.9 | 0.01 | 0.75 | 0.52 | 96 | 1008.9 |
| 20260507230606 | 57 | 316 | 0.0 | 0.9 | 0.01 | 0.75 | 0.52 | 96 | 1008.7 |
| 20260507230004 | 57 | 317 | 0.0 | 1.7 | 0.01 | 0.75 | 0.52 | 96 | 1008.6 |
| 20260507225511 | 57 | 317 | 0.0 | 1.7 | 0.01 | 0.75 | 0.52 | 95 | 1008.6 |
| 20260507225103 | 57 | 1 | 0.0 | 1.7 | 0.01 | 0.75 | 0.52 | 95 | 1008.6 |
| 20260507224506 | 57 | 356 | 0.0 | 2.6 | 0.01 | 0.75 | 0.52 | 95 | 1008.6 |
| 20260507224008 | 57 | 14 | 0.0 | 2.6 | 0.01 | 0.75 | 0.52 | 95 | 1008.7 |
| 20260507223605 | 57 | 323 | 0.0 | 1.7 | 0.01 | 0.75 | 0.52 | 95 | 1008.5 |
| 20260507223002 | 57 | 340 | 0.0 | 1.7 | 0.01 | 0.75 | 0.52 | 96 | 1008.2 |
| 20260507222510 | 57 | 341 | 0.0 | 1.7 | 0.01 | 0.75 | 0.52 | 95 | 1008.2 |
| 20260507222103 | 57 | 341 | 0.0 | 2.6 | 0.00 | 0.74 | 0.51 | 96 | 1008.0 |
| 20260507221504 | 57 | 337 | 0.9 | 6.1 | 0.00 | 0.74 | 0.51 | 95 | 1008.0 |
| 20260507221011 | 57 | 349 | 1.7 | 6.1 | 0.00 | 0.74 | 0.51 | 95 | 1008.1 |
| 20260507220602 | 57 | 318 | 0.0 | 1.7 | 0.01 | 0.74 | 0.51 | 95 | 1008.2 |
| 20260507220002 | 57 | 311 | 0.0 | 3.5 | 0.02 | 0.74 | 0.51 | 95 | 1008.3 |
| 20260507215510 | 57 | 313 | 0.9 | 3.5 | 0.02 | 0.74 | 0.51 | 95 | 1008.3 |
| 20260507215105 | 57 | 219 | 0.0 | 5.2 | 0.02 | 0.74 | 0.51 | 95 | 1008.1 |
| 20260507214503 | 57 | 5 | 1.7 | 5.2 | 0.03 | 0.74 | 0.51 | 95 | 1007.9 |
| 20260507214009 | 57 | 48 | 0.0 | 3.5 | 0.03 | 0.74 | 0.51 | 95 | 1007.8 |
| 20260507213603 | 57 | 316 | 0.0 | 3.5 | 0.03 | 0.74 | 0.51 | 95 | 1007.7 |
| 20260507213111 | 57 | 332 | 0.0 | 3.5 | 0.04 | 0.74 | 0.51 | 95 | 1008.0 |
| 20260507212509 | 58 | 35 | 0.0 | 2.6 | 0.05 | 0.74 | 0.51 | 96 | 1007.8 |
| 20260507212102 | 58 | 31 | 0.0 | 3.5 | 0.06 | 0.74 | 0.51 | 96 | 1007.7 |
| 20260507211505 | 57 | 304 | 0.9 | 2.6 | 0.10 | 0.74 | 0.51 | 96 | 1007.8 |
| 20260507211009 | 57 | 306 | 0.0 | 2.6 | 0.16 | 0.74 | 0.51 | 96 | 1007.8 |
| 20260507210603 | 57 | 306 | 0.0 | 4.3 | 0.17 | 0.73 | 0.50 | 96 | 1007.8 |
| 20260507210006 | 57 | 67 | 0.9 | 4.3 | 0.18 | 0.72 | 0.49 | 95 | 1008.0 |
| 20260507205508 | 57 | 314 | 0.0 | 3.5 | 0.18 | 0.72 | 0.49 | 95 | 1007.8 |
| 20260507205101 | 57 | 82 | 0.9 | 3.5 | 0.18 | 0.72 | 0.49 | 95 | 1008.0 |
| 20260507204503 | 57 | 305 | 0.0 | 4.3 | 0.17 | 0.71 | 0.48 | 95 | 1007.8 |
| 20260507204012 | 57 | 349 | 1.7 | 4.3 | 0.17 | 0.71 | 0.48 | 94 | 1007.8 |
| 20260507203603 | 57 | 13 | 1.7 | 5.2 | 0.17 | 0.71 | 0.48 | 94 | 1007.8 |
| 20260507203002 | 57 | 335 | 1.7 | 7.8 | 0.16 | 0.70 | 0.47 | 94 | 1007.5 |
| 20260507202509 | 57 | 153 | 0.0 | 6.1 | 0.15 | 0.69 | 0.46 | 94 | 1007.1 |
| 20260507201502 | 58 | 320 | 2.6 | 5.2 | 0.09 | 0.63 | 0.40 | 92 | 1007.9 |
| 20260507201009 | 58 | 15 | 0.9 | 3.5 | 0.04 | 0.57 | 0.35 | 91 | 1008.2 |
| 20260507200603 | 59 | 307 | 0.9 | 3.5 | 0.01 | 0.55 | 0.32 | 91 | 1007.6 |
| 20260507200004 | 59 | 1 | 0.9 | 6.1 | 0.00 | 0.54 | 0.31 | 90 | 1007.4 |
| 20260507195509 | 60 | 348 | 2.6 | 4.3 | 0.00 | 0.54 | 0.31 | 89 | 1007.4 |
| 20260507195105 | 60 | 4 | 0.9 | 3.5 | 0.00 | 0.54 | 0.31 | 89 | 1007.5 |
| 20260507194502 | 61 | 349 | 0.9 | 3.5 | 0.00 | 0.54 | 0.31 | 89 | 1007.0 |
| 20260507194009 | 61 | 25 | 1.7 | 3.5 | 0.00 | 0.54 | 0.31 | 89 | 1006.8 |
| 20260507193603 | 61 | 72 | 1.7 | 3.5 | 0.00 | 0.54 | 0.31 | 89 | 1007.2 |
| 20260507193003 | 62 | 86 | 0.9 | 3.5 | 0.00 | 0.54 | 0.31 | 90 | 1007.2 |
| 20260507192508 | 62 | 70 | 0.9 | 4.3 | 0.00 | 0.54 | 0.31 | 91 | 1007.0 |
| 20260507192102 | 62 | 27 | 0.9 | 4.3 | 0.00 | 0.54 | 0.31 | 89 | 1007.0 |
| 20260507191503 | 62 | 24 | 0.9 | 5.2 | 0.00 | 0.54 | 0.31 | 90 | 1006.7 |
| 20260507191008 | 62 | 340 | 1.7 | 5.2 | 0.00 | 0.54 | 0.31 | 91 | 1006.8 |
| 20260507190602 | 62 | 68 | 0.0 | 7.0 | 0.00 | 0.54 | 0.31 | 92 | 1006.9 |
| 20260507190004 | 62 | 294 | 0.9 | 7.0 | 0.00 | 0.54 | 0.31 | 91 | 1007.1 |
| 20260507185509 | 62 | 4 | 0.9 | 4.3 | 0.00 | 0.54 | 0.31 | 93 | 1007.2 |
| 20260507185102 | 62 | 19 | 0.9 | 4.3 | 0.00 | 0.54 | 0.31 | 93 | 1007.2 |
| 20260507184503 | 62 | 35 | 0.0 | 2.6 | 0.00 | 0.54 | 0.31 | 93 | 1007.3 |
| 20260507184009 | 62 | 66 | 0.0 | 3.5 | 0.00 | 0.54 | 0.31 | 92 | 1007.1 |
| 20260507183604 | 62 | 51 | 0.9 | 3.5 | 0.00 | 0.54 | 0.31 | 92 | 1007.1 |
| 20260507183007 | 63 | 323 | 0.9 | 4.3 | 0.00 | 0.54 | 0.31 | 92 | 1007.3 |
| 20260507182510 | 63 | 306 | 1.7 | 5.2 | 0.00 | 0.54 | 0.31 | 91 | 1007.2 |
| 20260507182103 | 63 | 317 | 0.9 | 6.1 | 0.00 | 0.54 | 0.31 | 92 | 1007.3 |
| 20260507181503 | 63 | 1 | 1.7 | 7.0 | 0.00 | 0.54 | 0.31 | 92 | 1007.4 |
| 20260507181009 | 63 | 41 | 1.7 | 4.3 | 0.00 | 0.54 | 0.31 | 92 | 1007.3 |
| 20260507180603 | 64 | 46 | 0.9 | 6.1 | 0.00 | 0.54 | 0.31 | 91 | 1007.2 |
| 20260507180003 | 64 | 357 | 1.7 | 9.6 | 0.00 | 0.54 | 0.31 | 92 | 1007.0 |
| 20260507175512 | 64 | 1 | 2.6 | 9.6 | 0.00 | 0.57 | 0.31 | 91 | 1007.0 |
| 20260507175103 | 64 | 335 | 1.7 | 5.2 | 0.00 | 0.57 | 0.31 | 92 | 1007.0 |
| 20260507174504 | 65 | 24 | 0.9 | 4.3 | 0.00 | 0.57 | 0.31 | 92 | 1007.3 |
| 20260507174008 | 65 | 315 | 0.9 | 7.0 | 0.00 | 0.57 | 0.31 | 91 | 1007.3 |
| 20260507173603 | 65 | 349 | 1.7 | 7.0 | 0.00 | 0.57 | 0.31 | 90 | 1007.4 |
| 20260507173003 | 67 | 352 | 2.6 | 7.0 | 0.00 | 0.57 | 0.31 | 90 | 1007.3 |
| 20260507172509 | 67 | 239 | 0.0 | 1.7 | 0.00 | 0.57 | 0.31 | 93 | 1007.3 |
| 20260507172103 | 67 | 239 | 0.0 | 1.7 | 0.00 | 0.57 | 0.31 | 93 | 1007.3 |
| 20260507171502 | 67 | 210 | 0.0 | 1.7 | 0.00 | 0.57 | 0.31 | 94 | 1007.4 |
| 20260507171009 | 67 | 210 | 0.0 | 1.7 | 0.00 | 0.57 | 0.31 | 95 | 1007.4 |
| 20260507170603 | 67 | 208 | 0.0 | 1.7 | 0.00 | 0.57 | 0.31 | 94 | 1007.3 |
| 20260507170002 | 67 | 208 | 0.0 | 1.7 | 0.00 | 0.57 | 0.31 | 96 | 1007.3 |
| 20260507165509 | 67 | 151 | 0.0 | 0.9 | 0.00 | 0.57 | 0.31 | 96 | 1007.4 |
| 20260507165106 | 67 | 151 | 0.0 | 1.7 | 0.00 | 0.57 | 0.31 | 96 | 1007.5 |
| 20260507164502 | 66 | 151 | 0.0 | 1.7 | 0.00 | 0.57 | 0.31 | 95 | 1007.8 |
| 20260507164008 | 66 | 135 | 0.0 | 1.7 | 0.00 | 0.57 | 0.31 | 95 | 1007.6 |
| 20260507163603 | 66 | 135 | 0.0 | 2.6 | 0.00 | 0.57 | 0.31 | 96 | 1007.2 |
| 20260507163002 | 66 | 354 | 0.0 | 2.6 | 0.00 | 0.57 | 0.31 | 95 | 1007.0 |
| 20260507162509 | 66 | 21 | 0.9 | 2.6 | 0.01 | 0.57 | 0.31 | 97 | 1007.0 |
| 20260507162103 | 66 | 192 | 0.0 | 1.7 | 0.01 | 0.57 | 0.31 | 97 | 1006.9 |
| 20260507161503 | 66 | 192 | 0.0 | 1.7 | 0.01 | 0.57 | 0.31 | 98 | 1006.8 |
| 20260507161008 | 65 | 192 | 0.0 | 1.7 | 0.01 | 0.57 | 0.31 | 97 | 1007.0 |
| 20260507160603 | 65 | 190 | 0.0 | 1.7 | 0.01 | 0.57 | 0.31 | 97 | 1007.0 |
| 20260507160004 | 65 | 189 | 0.0 | 0.9 | 0.01 | 0.57 | 0.31 | 97 | 1007.2 |
| 20260507155508 | 65 | 189 | 0.0 | 0.9 | 0.01 | 0.57 | 0.31 | 97 | 1007.2 |
| 20260507155104 | 65 | 189 | 0.0 | 0.0 | 0.01 | 0.57 | 0.31 | 97 | 1007.4 |
| 20260507154502 | 65 | 189 | 0.0 | 0.9 | 0.01 | 0.57 | 0.31 | 97 | 1007.3 |
| 20260507154010 | 64 | 189 | 0.0 | 0.0 | 0.01 | 0.57 | 0.31 | 97 | 1007.8 |
| 20260507153602 | 64 | 189 | 0.0 | 0.9 | 0.01 | 0.57 | 0.31 | 97 | 1007.8 |
| 20260507153003 | 64 | 189 | 0.0 | 0.9 | 0.01 | 0.57 | 0.31 | 97 | 1007.9 |
| 20260507152509 | 64 | 189 | 0.0 | 0.0 | 0.00 | 0.56 | 0.30 | 97 | 1008.1 |
| 20260507152106 | 64 | 189 | 0.0 | 0.0 | 0.01 | 0.56 | 0.30 | 97 | 1008.1 |
| 20260507151503 | 64 | 189 | 0.0 | 0.9 | 0.02 | 0.56 | 0.30 | 97 | 1008.0 |
| 20260507151008 | 64 | 190 | 0.0 | 0.9 | 0.02 | 0.56 | 0.30 | 97 | 1008.2 |
| 20260507150602 | 64 | 190 | 0.0 | 0.9 | 0.03 | 0.56 | 0.30 | 97 | 1008.3 |
| 20260507150005 | 64 | 190 | 0.0 | 2.6 | 0.03 | 0.56 | 0.30 | 97 | 1008.6 |
| 20260507145509 | 64 | 192 | 0.0 | 3.5 | 0.04 | 0.56 | 0.30 | 97 | 1008.9 |
| 20260507145102 | 64 | 196 | 0.0 | 3.5 | 0.04 | 0.56 | 0.30 | 97 | 1008.9 |
| 20260507144502 | 64 | 162 | 0.0 | 1.7 | 0.04 | 0.56 | 0.30 | 97 | 1008.1 |
| 20260507144009 | 64 | 162 | 0.0 | 0.9 | 0.05 | 0.56 | 0.30 | 97 | 1007.7 |
| 20260507143602 | 64 | 162 | 0.0 | 0.0 | 0.05 | 0.56 | 0.30 | 97 | 1007.6 |
| 20260507143003 | 64 | 162 | 0.0 | 0.9 | 0.05 | 0.56 | 0.30 | 97 | 1007.7 |
| 20260507142509 | 64 | 162 | 0.0 | 2.6 | 0.05 | 0.56 | 0.30 | 97 | 1007.8 |
| 20260507142103 | 64 | 162 | 0.0 | 2.6 | 0.05 | 0.56 | 0.28 | 97 | 1008.0 |
| 20260507141502 | 64 | 162 | 0.0 | 0.9 | 0.04 | 0.55 | 0.28 | 97 | 1008.1 |
| 20260507141012 | 64 | 162 | 0.0 | 0.9 | 0.04 | 0.55 | 0.28 | 97 | 1008.0 |
| 20260507140604 | 64 | 162 | 0.0 | 0.9 | 0.04 | 0.54 | 0.27 | 97 | 1008.2 |
| 20260507140002 | 64 | 162 | 0.0 | 0.9 | 0.05 | 0.54 | 0.27 | 97 | 1008.0 |
| 20260507135508 | 64 | 162 | 0.0 | 0.0 | 0.04 | 0.53 | 0.26 | 97 | 1008.0 |
| 20260507135102 | 64 | 162 | 0.0 | 0.0 | 0.05 | 0.53 | 0.26 | 97 | 1007.9 |
| 20260507134507 | 64 | 162 | 0.0 | 0.0 | 0.06 | 0.53 | 0.26 | 97 | 1007.3 |
| 20260507134012 | 64 | 162 | 0.0 | 0.0 | 0.06 | 0.52 | 0.25 | 97 | 1007.1 |
| 20260507133603 | 64 | 162 | 0.0 | 0.0 | 0.08 | 0.52 | 0.25 | 97 | 1007.0 |
| 20260507133005 | 63 | 162 | 0.0 | 0.0 | 0.10 | 0.52 | 0.25 | 97 | 1007.1 |
| 20260507132512 | 63 | 162 | 0.0 | 0.0 | 0.11 | 0.52 | 0.25 | 97 | 1007.2 |
| 20260507132103 | 63 | 162 | 0.0 | 0.0 | 0.10 | 0.51 | 0.24 | 97 | 1007.7 |
| 20260507131506 | 63 | 162 | 0.0 | 0.0 | 0.10 | 0.51 | 0.24 | 97 | 1008.1 |
| 20260507131008 | 63 | 162 | 0.0 | 0.9 | 0.10 | 0.51 | 0.24 | 97 | 1008.0 |
| 20260507130601 | 63 | 162 | 0.0 | 0.9 | 0.10 | 0.50 | 0.23 | 97 | 1008.2 |
| 20260507130003 | 63 | 162 | 0.0 | 0.0 | 0.09 | 0.49 | 0.22 | 97 | 1008.5 |
| 20260507125509 | 63 | 162 | 0.0 | 0.9 | 0.10 | 0.49 | 0.22 | 97 | 1008.7 |
| 20260507125101 | 63 | 162 | 0.0 | 0.9 | 0.09 | 0.48 | 0.21 | 97 | 1009.0 |
| 20260507124502 | 63 | 162 | 0.0 | 0.9 | 0.10 | 0.47 | 0.20 | 97 | 1009.1 |
| 20260507124009 | 63 | 162 | 0.0 | 0.9 | 0.11 | 0.46 | 0.19 | 97 | 1009.2 |
| 20260507123604 | 63 | 162 | 0.0 | 0.9 | 0.09 | 0.44 | 0.17 | 97 | 1009.3 |
| 20260507123006 | 63 | 162 | 0.0 | 0.0 | 0.07 | 0.42 | 0.15 | 97 | 1009.3 |
| 20260507122511 | 63 | 162 | 0.0 | 0.0 | 0.06 | 0.41 | 0.14 | 97 | 1009.1 |
| 20260507122102 | 63 | 162 | 0.0 | 0.9 | 0.06 | 0.41 | 0.14 | 97 | 1008.8 |
| 20260507121502 | 63 | 162 | 0.0 | 1.7 | 0.06 | 0.41 | 0.14 | 97 | 1008.7 |
| 20260507121009 | 63 | 162 | 0.0 | 2.6 | 0.05 | 0.40 | 0.13 | 97 | 1008.6 |
| 20260507120603 | 63 | 162 | 0.0 | 2.6 | 0.05 | 0.40 | 0.13 | 97 | 1008.6 |
| 20260507120002 | 63 | 167 | 0.0 | 1.7 | 0.05 | 0.40 | 0.13 | 97 | 1008.7 |
| 20260507115508 | 63 | 167 | 0.0 | 1.7 | 0.04 | 0.39 | 0.12 | 97 | 1008.7 |
| 20260507115101 | 63 | 169 | 0.0 | 1.7 | 0.04 | 0.38 | 0.11 | 97 | 1008.7 |
| 20260507114503 | 63 | 200 | 0.0 | 0.9 | 0.03 | 0.37 | 0.10 | 97 | 1008.6 |
| 20260507114008 | 63 | 200 | 0.0 | 0.9 | 0.01 | 0.35 | 0.08 | 97 | 1008.5 |
| 20260507113605 | 63 | 200 | 0.0 | 0.9 | 0.01 | 0.35 | 0.08 | 97 | 1008.6 |
| 20260507113002 | 63 | 200 | 0.0 | 0.0 | 0.01 | 0.35 | 0.08 | 97 | 1008.2 |
| 20260507112509 | 63 | 200 | 0.0 | 0.0 | 0.01 | 0.35 | 0.08 | 97 | 1008.1 |
| 20260507112102 | 63 | 200 | 0.0 | 0.0 | 0.01 | 0.35 | 0.08 | 97 | 1008.2 |
| 20260507111507 | 63 | 200 | 0.0 | 0.0 | 0.02 | 0.35 | 0.08 | 97 | 1008.3 |
| 20260507111008 | 63 | 200 | 0.0 | 0.0 | 0.02 | 0.35 | 0.08 | 97 | 1008.0 |
| 20260507110602 | 63 | 200 | 0.0 | 0.0 | 0.02 | 0.35 | 0.08 | 97 | 1007.8 |
| 20260507110002 | 63 | 200 | 0.0 | 0.0 | 0.02 | 0.35 | 0.08 | 97 | 1008.1 |
| 20260507105508 | 63 | 200 | 0.0 | 0.0 | 0.02 | 0.35 | 0.08 | 97 | 1007.9 |
| 20260507105105 | 63 | 200 | 0.0 | 0.0 | 0.01 | 0.34 | 0.07 | 97 | 1008.1 |
| 20260507104506 | 63 | 200 | 0.0 | 0.0 | 0.01 | 0.34 | 0.07 | 97 | 1008.3 |
| 20260507104008 | 63 | 200 | 0.0 | 0.0 | 0.01 | 0.34 | 0.07 | 97 | 1008.2 |
| 20260507103604 | 63 | 200 | 0.0 | 0.0 | 0.01 | 0.34 | 0.07 | 97 | 1008.3 |
| 20260507103002 | 63 | 200 | 0.0 | 0.0 | 0.01 | 0.34 | 0.07 | 97 | 1008.2 |
| 20260507102510 | 63 | 200 | 0.0 | 0.0 | 0.02 | 0.34 | 0.07 | 97 | 1008.2 |
| 20260507102105 | 63 | 200 | 0.0 | 0.0 | 0.02 | 0.34 | 0.07 | 97 | 1008.0 |
| 20260507101512 | 63 | 200 | 0.0 | 0.0 | 0.01 | 0.33 | 0.06 | 97 | 1008.2 |
| 20260507101014 | 63 | 200 | 0.0 | 0.9 | 0.01 | 0.33 | 0.06 | 97 | 1008.2 |
| 20260507100605 | 63 | 200 | 0.0 | 0.9 | 0.01 | 0.33 | 0.06 | 97 | 1008.0 |
| 20260507100004 | 63 | 200 | 0.0 | 0.0 | 0.01 | 0.33 | 0.06 | 97 | 1008.2 |
| 20260507095509 | 63 | 200 | 0.0 | 0.0 | 0.01 | 0.33 | 0.06 | 97 | 1008.2 |
| 20260507095104 | 63 | 200 | 0.0 | 0.0 | 0.01 | 0.33 | 0.06 | 97 | 1008.2 |
| 20260507094504 | 63 | 200 | 0.0 | 0.0 | 0.01 | 0.33 | 0.06 | 97 | 1008.1 |
| 20260507094010 | 63 | 200 | 0.0 | 0.0 | 0.01 | 0.33 | 0.06 | 97 | 1008.4 |
| 20260507093604 | 63 | 200 | 0.0 | 0.0 | 0.01 | 0.33 | 0.06 | 97 | 1008.6 |
| 20260507093004 | 63 | 200 | 0.0 | 0.0 | 0.00 | 0.32 | 0.05 | 97 | 1008.2 |
| 20260507092509 | 63 | 200 | 0.0 | 0.0 | 0.00 | 0.32 | 0.05 | 97 | 1008.3 |
| 20260507091503 | 63 | 200 | 0.0 | 0.9 | 0.01 | 0.32 | 0.05 | 97 | 1008.4 |
| 20260507091010 | 63 | 200 | 0.0 | 0.0 | 0.01 | 0.32 | 0.05 | 97 | 1008.4 |
| 20260507090603 | 63 | 200 | 0.0 | 0.9 | 0.01 | 0.32 | 0.05 | 97 | 1008.2 |
| 20260507090006 | 63 | 200 | 0.0 | 1.7 | 0.01 | 0.32 | 0.05 | 97 | 1008.4 |
| 20260507085509 | 63 | 200 | 0.0 | 2.6 | 0.01 | 0.32 | 0.05 | 97 | 1007.9 |
| 20260507085103 | 63 | 196 | 0.9 | 2.6 | 0.01 | 0.32 | 0.05 | 97 | 1007.7 |
| 20260507084609 | 63 | 194 | 0.0 | 1.7 | 0.01 | 0.32 | 0.05 | 97 | 1007.8 |
| 20260507084010 | 63 | 194 | 0.0 | 0.9 | 0.01 | 0.32 | 0.05 | 97 | 1007.7 |
| 20260507083603 | 63 | 194 | 0.0 | 0.9 | 0.01 | 0.32 | 0.05 | 97 | 1007.7 |
| 20260507083004 | 63 | 194 | 0.0 | 0.9 | 0.01 | 0.32 | 0.05 | 97 | 1007.7 |
| 20260507082509 | 63 | 194 | 0.0 | 0.9 | 0.01 | 0.32 | 0.05 | 97 | 1007.9 |
| 20260507082103 | 63 | 194 | 0.0 | 0.0 | 0.01 | 0.32 | 0.05 | 97 | 1008.0 |
| 20260507081510 | 63 | 194 | 0.0 | 1.7 | 0.00 | 0.31 | 0.04 | 97 | 1008.0 |
| 20260507081009 | 63 | 194 | 0.0 | 1.7 | 0.00 | 0.31 | 0.04 | 97 | 1008.1 |
| 20260507080604 | 63 | 194 | 0.0 | 1.7 | 0.00 | 0.31 | 0.04 | 97 | 1008.1 |
| 20260507080004 | 63 | 194 | 0.0 | 0.9 | 0.00 | 0.31 | 0.04 | 97 | 1008.1 |
| 20260507075509 | 63 | 194 | 0.0 | 1.7 | 0.00 | 0.31 | 0.04 | 97 | 1008.2 |
| 20260507075106 | 63 | 194 | 0.0 | 1.7 | 0.00 | 0.31 | 0.04 | 97 | 1008.5 |
| 20260507074517 | 63 | 194 | 0.0 | 1.7 | 0.00 | 0.31 | 0.04 | 97 | 1008.3 |
| 20260507074011 | 63 | 194 | 0.0 | 1.7 | 0.00 | 0.31 | 0.04 | 97 | 1008.7 |
| 20260507073603 | 63 | 194 | 0.0 | 0.9 | 0.00 | 0.31 | 0.04 | 97 | 1008.9 |
| 20260507073004 | 63 | 194 | 0.0 | 0.9 | 0.00 | 0.31 | 0.04 | 97 | 1009.2 |
| 20260507072510 | 63 | 194 | 0.0 | 0.9 | 0.00 | 0.31 | 0.04 | 97 | 1009.3 |
| 20260507072105 | 63 | 194 | 0.0 | 1.7 | 0.00 | 0.31 | 0.04 | 97 | 1009.1 |
| 20260507071504 | 63 | 194 | 0.0 | 2.6 | 0.00 | 0.31 | 0.04 | 97 | 1009.0 |
| 20260507071009 | 63 | 194 | 0.0 | 1.7 | 0.00 | 0.31 | 0.04 | 97 | 1008.9 |
| 20260507070604 | 63 | 194 | 0.0 | 1.7 | 0.01 | 0.31 | 0.04 | 97 | 1008.8 |
| 20260507070010 | 63 | 194 | 0.0 | 1.7 | 0.02 | 0.31 | 0.04 | 97 | 1008.8 |
| 20260507065514 | 63 | 194 | 0.0 | 1.7 | 0.02 | 0.31 | 0.04 | 97 | 1008.9 |
| 20260507065104 | 63 | 194 | 0.0 | 0.0 | 0.02 | 0.31 | 0.04 | 97 | 1009.0 |
| 20260507064505 | 63 | 194 | 0.0 | 0.0 | 0.02 | 0.31 | 0.04 | 97 | 1009.3 |
| 20260507064009 | 63 | 194 | 0.0 | 0.0 | 0.02 | 0.31 | 0.04 | 97 | 1009.4 |
| 20260507063604 | 63 | 194 | 0.0 | 0.0 | 0.02 | 0.31 | 0.04 | 97 | 1009.4 |
| 20260507063005 | 63 | 194 | 0.0 | 0.0 | 0.02 | 0.31 | 0.04 | 97 | 1009.4 |
| 20260507062510 | 63 | 194 | 0.0 | 0.0 | 0.02 | 0.31 | 0.04 | 96 | 1009.9 |
| 20260507062104 | 63 | 194 | 0.0 | 0.0 | 0.03 | 0.31 | 0.04 | 96 | 1009.8 |
| 20260507061504 | 63 | 194 | 0.0 | 1.7 | 0.04 | 0.31 | 0.04 | 96 | 1009.6 |
| 20260507061009 | 63 | 194 | 0.0 | 1.7 | 0.04 | 0.31 | 0.04 | 96 | 1010.1 |
| 20260507060604 | 63 | 194 | 0.0 | 0.9 | 0.03 | 0.30 | 0.03 | 96 | 1009.6 |
| 20260507060004 | 63 | 194 | 0.0 | 0.9 | 0.02 | 0.28 | 0.02 | 96 | 1010.3 |
| 20260507055511 | 63 | 194 | 0.0 | 0.9 | 0.02 | 0.28 | 0.02 | 96 | 1010.8 |
| 20260507055103 | 63 | 194 | 0.0 | 0.0 | 0.02 | 0.28 | 0.02 | 96 | 1010.5 |
| 20260507054503 | 63 | 194 | 0.0 | 0.0 | 0.02 | 0.28 | 0.02 | 96 | 1010.4 |
| 20260507054013 | 63 | 194 | 0.0 | 0.0 | 0.02 | 0.28 | 0.02 | 96 | 1010.2 |
| 20260507053603 | 63 | 194 | 0.0 | 0.0 | 0.02 | 0.28 | 0.02 | 96 | 1010.4 |
| 20260507053006 | 63 | 194 | 0.0 | 0.9 | 0.02 | 0.28 | 0.02 | 96 | 1010.5 |
| 20260507052513 | 63 | 194 | 0.0 | 0.9 | 0.01 | 0.28 | 0.01 | 96 | 1010.5 |
| 20260507052104 | 63 | 194 | 0.0 | 0.9 | 0.01 | 0.28 | 0.01 | 96 | 1010.5 |
| 20260507051503 | 63 | 194 | 0.0 | 0.9 | 0.00 | 0.27 | 0.00 | 96 | 1010.9 |
| 20260507051010 | 63 | 194 | 0.0 | 0.9 | 0.00 | 0.27 | 0.00 | 96 | 1011.2 |
| 20260507050603 | 63 | 194 | 0.0 | 1.7 | 0.00 | 0.27 | 0.00 | 96 | 1011.0 |
| 20260507050005 | 63 | 194 | 0.0 | 1.7 | 0.00 | 0.27 | 0.00 | 96 | 1010.5 |
| 20260507045510 | 63 | 195 | 0.0 | 2.6 | 0.00 | 0.27 | 0.00 | 96 | 1010.5 |
| 20260507045102 | 63 | 195 | 0.0 | 2.6 | 0.01 | 0.27 | 0.00 | 96 | 1010.4 |
| 20260507044503 | 63 | 183 | 0.0 | 1.7 | 0.02 | 0.27 | 0.00 | 96 | 1010.6 |
| 20260507044009 | 63 | 172 | 0.0 | 1.7 | 0.02 | 0.27 | 0.00 | 96 | 1010.4 |
| 20260507043603 | 63 | 174 | 0.0 | 0.0 | 0.02 | 0.27 | 0.00 | 96 | 1010.4 |
| 20260507043003 | 63 | 186 | 0.0 | 0.0 | 0.03 | 0.27 | 0.00 | 96 | 1010.7 |
| 20260507042510 | 63 | 163 | 0.0 | 0.0 | 0.03 | 0.27 | 0.00 | 96 | 1010.6 |
| 20260507042105 | 63 | 106 | 0.0 | 0.0 | 0.04 | 0.27 | 0.00 | 96 | 1010.6 |